createdAt,value
2023-02-11T00:01:37.006Z,1.05
2023-02-11T00:04:07.657Z,0.77
2023-02-11T00:06:37.611Z,0.75
2023-02-11T00:09:07.401Z,0.70
2023-02-11T00:11:36.008Z,0.88
2023-02-11T00:14:06.961Z,0.73
2023-02-11T00:16:35.525Z,0.82
2023-02-11T00:19:08.021Z,0.90
2023-02-11T00:21:36.977Z,0.80
2023-02-11T00:24:05.871Z,0.75
2023-02-11T00:26:36.425Z,0.73
2023-02-11T00:29:05.768Z,0.90
2023-02-11T00:31:35.016Z,0.90
2023-02-11T00:34:04.143Z,0.80
2023-02-11T00:36:32.903Z,1.10
2023-02-11T00:39:01.935Z,0.80
2023-02-11T00:41:30.766Z,0.82
2023-02-11T00:43:59.359Z,0.90
2023-02-11T00:46:27.994Z,0.82
2023-02-11T00:48:59.013Z,0.90
2023-02-11T00:51:28.832Z,0.80
2023-02-11T00:53:57.433Z,0.80
2023-02-11T00:56:26.092Z,0.82
2023-02-11T00:58:55.369Z,1.27
2023-02-11T01:01:23.994Z,1.17
2023-02-11T01:03:52.653Z,0.90
2023-02-11T01:06:21.445Z,0.70
2023-02-11T01:08:50.136Z,0.90
2023-02-11T01:11:20.882Z,1.30
2023-02-11T01:13:50.838Z,0.68
2023-02-11T01:16:20.122Z,0.90
2023-02-11T01:18:49.414Z,0.80
2023-02-11T01:21:18.013Z,0.70
2023-02-11T01:23:46.545Z,0.68
2023-02-11T01:26:15.341Z,0.90
2023-02-11T01:28:44.081Z,0.90
2023-02-11T01:31:12.756Z,0.82
2023-02-11T01:33:41.519Z,0.80
2023-02-11T01:36:10.394Z,0.80
2023-02-11T01:38:39.223Z,0.77
2023-02-11T01:41:10.775Z,0.80
2023-02-11T01:43:43.868Z,1.15
2023-02-11T01:46:33.767Z,1.48
2023-02-11T01:49:29.594Z,1.40
2023-02-11T01:52:23.473Z,1.30
2023-02-11T01:55:13.302Z,0.90
2023-02-11T01:57:44.230Z,1.00
2023-02-11T02:00:25.499Z,1.10
2023-02-11T02:03:10.321Z,1.00
2023-02-11T02:06:13.963Z,1.02
2023-02-11T02:08:48.005Z,1.10
2023-02-11T02:11:16.621Z,1.00
2023-02-11T02:13:45.119Z,0.90
2023-02-11T02:16:16.139Z,1.08
2023-02-11T02:18:47.820Z,0.82
2023-02-11T02:22:11.821Z,1.00
2023-02-11T02:25:02.300Z,1.10
2023-02-11T02:28:10.962Z,1.00
2023-02-11T02:31:13.626Z,0.90
2023-02-11T02:33:47.831Z,0.90
2023-02-11T02:36:19.019Z,0.80
2023-02-11T02:38:53.164Z,1.23
2023-02-11T02:41:25.540Z,0.80
2023-02-11T02:43:54.408Z,0.77
2023-02-11T02:46:31.994Z,0.80
2023-02-11T02:49:00.755Z,0.80
2023-02-11T02:52:02.177Z,0.90
2023-02-11T02:54:43.565Z,0.88
2023-02-11T02:57:42.329Z,0.90
2023-02-11T03:00:31.153Z,0.80
2023-02-11T03:03:05.615Z,0.88
2023-02-11T03:05:52.834Z,0.95
2023-02-11T03:08:31.362Z,0.75
2023-02-11T03:11:01.239Z,0.80
2023-02-11T03:13:34.846Z,0.73
2023-02-11T03:16:13.937Z,0.77
2023-02-11T03:18:46.416Z,0.60
2023-02-11T03:21:15.975Z,0.95
2023-02-11T03:23:55.123Z,0.90
2023-02-11T03:26:35.395Z,0.77
2023-02-11T03:29:12.672Z,0.80
2023-02-11T03:32:04.004Z,0.93
2023-02-11T03:34:51.884Z,1.08
2023-02-11T03:37:23.970Z,1.05
2023-02-11T03:40:03.823Z,0.90
2023-02-11T03:42:38.311Z,0.90
2023-02-11T03:45:13.138Z,0.90
2023-02-11T03:47:45.092Z,0.80
2023-02-11T03:50:14.791Z,0.80
2023-02-11T03:52:43.776Z,0.80
2023-02-11T03:55:15.356Z,0.70
2023-02-11T03:57:44.013Z,0.70
2023-02-11T04:00:13.480Z,0.70
2023-02-11T04:02:42.590Z,0.77
2023-02-11T04:05:14.875Z,0.80
2023-02-11T04:07:43.883Z,1.30
2023-02-11T04:10:13.712Z,1.00
2023-02-11T04:12:41.626Z,0.90
2023-02-11T04:15:12.812Z,1.00
2023-02-11T04:17:41.494Z,1.00
2023-02-11T04:20:11.240Z,1.05
2023-02-11T04:22:40.061Z,0.88
2023-02-11T04:25:09.550Z,1.00
2023-02-11T04:27:38.335Z,0.80
2023-02-11T04:30:08.814Z,0.80
2023-02-11T04:32:37.408Z,1.00
2023-02-11T04:35:06.240Z,0.90
2023-02-11T04:37:34.835Z,1.00
2023-02-11T04:40:03.557Z,0.80
2023-02-11T04:42:32.228Z,1.00
2023-02-11T04:45:00.919Z,0.90
2023-02-11T04:47:29.460Z,1.13
2023-02-11T04:49:58.102Z,1.20
2023-02-11T04:52:26.732Z,1.30
2023-02-11T04:54:55.329Z,1.15
2023-02-11T04:57:23.904Z,1.10
2023-02-11T04:59:52.685Z,1.20
2023-02-11T05:02:21.263Z,1.13
2023-02-11T05:04:51.157Z,1.40
2023-02-11T05:07:20.200Z,1.20
2023-02-11T05:09:48.736Z,1.23
2023-02-11T05:12:17.322Z,1.17
2023-02-11T05:14:45.323Z,1.20
2023-02-11T05:17:13.868Z,1.20
2023-02-11T05:19:43.934Z,1.20
2023-02-11T05:22:12.589Z,1.05
2023-02-11T05:24:41.234Z,1.20
2023-02-11T05:27:09.253Z,1.10
2023-02-11T05:29:37.881Z,1.05
2023-02-11T05:32:06.586Z,1.20
2023-02-11T05:34:35.098Z,1.10
2023-02-11T05:37:03.729Z,1.10
2023-02-11T05:39:32.315Z,1.10
2023-02-11T05:42:00.863Z,1.00
2023-02-11T05:44:29.467Z,1.10
2023-02-11T05:46:58.086Z,1.00
2023-02-11T05:49:26.602Z,1.10
2023-02-11T05:51:54.588Z,0.90
2023-02-11T05:54:23.102Z,1.00
2023-02-11T05:56:51.632Z,1.00
2023-02-11T05:59:20.170Z,1.10
2023-02-11T06:01:48.712Z,1.20
2023-02-11T06:04:17.221Z,1.00
2023-02-11T06:06:45.810Z,0.90
2023-02-11T06:09:14.414Z,1.17
2023-02-11T06:11:42.962Z,0.95
2023-02-11T06:14:12.363Z,0.93
2023-02-11T06:16:40.924Z,1.00
2023-02-11T06:19:09.555Z,1.10
2023-02-11T06:21:43.902Z,0.93
2023-02-11T06:24:13.601Z,0.90
2023-02-11T06:26:42.329Z,0.90
2023-02-11T06:29:10.999Z,0.90
2023-02-11T06:31:40.782Z,1.35
2023-02-11T06:34:11.393Z,1.00
2023-02-11T06:36:44.164Z,0.80
2023-02-11T06:39:13.764Z,1.10
2023-02-11T06:41:42.400Z,0.93
2023-02-11T06:44:10.924Z,1.02
2023-02-11T06:46:39.610Z,1.40
2023-02-11T06:49:08.193Z,1.10
2023-02-11T06:51:36.699Z,1.10
2023-02-11T06:54:07.071Z,0.80
2023-02-11T06:56:36.170Z,1.20
2023-02-11T06:59:04.699Z,1.20
2023-02-11T07:01:33.364Z,1.00
2023-02-11T07:04:02.116Z,1.10
2023-02-11T07:06:31.062Z,1.10
2023-02-11T07:08:59.620Z,0.90
2023-02-11T07:11:30.241Z,1.00
2023-02-11T07:14:07.561Z,1.08
2023-02-11T07:16:36.861Z,1.10
2023-02-11T07:19:05.452Z,1.00
2023-02-11T07:21:33.955Z,1.10
2023-02-11T07:24:02.699Z,0.80
2023-02-11T07:26:31.245Z,0.80
2023-02-11T07:29:00.198Z,1.00
2023-02-11T07:31:30.490Z,1.00
2023-02-11T07:34:01.573Z,1.00
2023-02-11T07:36:31.047Z,0.98
2023-02-11T07:39:00.176Z,0.98
2023-02-11T07:41:29.048Z,0.90
2023-02-11T07:43:57.707Z,1.10
2023-02-11T07:46:28.709Z,1.05
2023-02-11T07:48:57.573Z,0.80
2023-02-11T07:51:31.056Z,1.15
2023-02-11T07:54:01.372Z,1.00
2023-02-11T07:56:31.422Z,0.90
2023-02-11T07:59:02.428Z,1.02
2023-02-11T08:01:32.071Z,1.10
2023-02-11T08:04:02.279Z,1.20
2023-02-11T08:06:33.681Z,1.00
2023-02-11T08:09:08.083Z,0.80
2023-02-11T08:11:37.066Z,1.00
2023-02-11T08:14:05.612Z,1.10
2023-02-11T08:16:36.576Z,0.85
2023-02-11T08:19:08.028Z,0.90
2023-02-11T08:21:36.551Z,1.00
2023-02-11T08:24:05.164Z,0.90
2023-02-11T08:26:36.244Z,1.00
2023-02-11T08:29:10.128Z,0.85
2023-02-11T08:31:41.569Z,0.93
2023-02-11T08:34:11.907Z,0.90
2023-02-11T08:36:41.937Z,0.90
2023-02-11T08:39:19.737Z,0.90
2023-02-11T08:41:57.901Z,0.75
2023-02-11T08:44:26.548Z,1.00
2023-02-11T08:46:55.541Z,0.90
2023-02-11T08:49:24.321Z,0.93
2023-02-11T08:51:53.197Z,1.08
2023-02-11T08:54:21.776Z,0.98
2023-02-11T08:56:52.884Z,1.00
2023-02-11T08:59:21.695Z,0.98
2023-02-11T09:01:50.617Z,1.00
2023-02-11T09:04:19.479Z,1.13
2023-02-11T09:06:48.556Z,1.00
2023-02-11T09:09:17.840Z,1.10
2023-02-11T09:11:47.044Z,1.02
2023-02-11T09:14:21.821Z,0.80
2023-02-11T09:16:50.557Z,1.00
2023-02-11T09:19:19.744Z,0.88
2023-02-11T09:21:48.542Z,0.90
2023-02-11T09:24:17.296Z,0.90
2023-02-11T09:26:45.895Z,0.90
2023-02-11T09:29:14.924Z,0.93
2023-02-11T09:31:43.656Z,0.93
2023-02-11T09:34:13.147Z,0.90
2023-02-11T09:36:42.927Z,1.00
2023-02-11T09:39:15.772Z,1.05
2023-02-11T09:42:21.188Z,0.90
2023-02-11T09:44:50.221Z,0.90
2023-02-11T09:47:33.783Z,0.80
2023-02-11T09:50:06.740Z,0.77
2023-02-11T09:52:53.933Z,1.10
2023-02-11T09:55:31.689Z,0.98
2023-02-11T09:58:00.367Z,0.90
2023-02-11T10:00:55.419Z,0.90
2023-02-11T10:03:49.934Z,0.90
2023-02-11T10:06:33.826Z,1.08
2023-02-11T10:12:04.122Z,1.00
2023-02-11T10:15:03.196Z,1.00
2023-02-11T10:18:01.136Z,0.88
2023-02-11T10:20:35.495Z,0.90
2023-02-11T10:23:25.877Z,0.93
2023-02-11T10:25:57.588Z,0.90
2023-02-11T10:28:32.222Z,1.00
2023-02-11T10:31:30.903Z,1.10
2023-02-11T10:34:01.989Z,0.95
2023-02-11T10:36:36.874Z,1.00
2023-02-11T10:39:20.115Z,0.95
2023-02-11T10:42:02.298Z,1.00
2023-02-11T10:44:40.218Z,1.00
2023-02-11T10:47:22.445Z,1.00
2023-02-11T10:49:51.205Z,1.10
2023-02-11T10:52:21.084Z,0.90
2023-02-11T10:55:22.121Z,0.90
2023-02-11T10:58:02.193Z,1.08
2023-02-11T11:00:40.208Z,1.08
2023-02-11T11:03:25.567Z,0.90
2023-02-11T11:06:02.365Z,1.00
2023-02-11T11:08:45.825Z,1.02
2023-02-11T11:11:24.265Z,1.30
2023-02-11T11:13:56.846Z,1.30
2023-02-11T11:16:25.499Z,1.20
2023-02-11T11:19:15.225Z,1.10
2023-02-11T11:21:52.176Z,1.02
2023-02-11T11:24:47.890Z,1.25
2023-02-11T11:27:26.041Z,0.98
2023-02-11T11:29:56.956Z,1.27
2023-02-11T11:32:38.538Z,1.05
2023-02-11T11:35:22.277Z,1.17
2023-02-11T11:37:59.329Z,1.05
2023-02-11T11:40:31.820Z,1.20
2023-02-11T11:43:15.537Z,1.27
2023-02-11T11:45:59.005Z,1.20
2023-02-11T11:48:33.143Z,1.08
2023-02-11T11:51:03.870Z,1.20
2023-02-11T11:53:44.839Z,1.20
2023-02-11T11:56:20.196Z,1.23
2023-02-11T11:58:48.734Z,1.38
2023-02-11T12:01:36.625Z,1.05
2023-02-11T12:04:26.975Z,1.10
2023-02-11T12:07:26.382Z,1.10
2023-02-11T12:10:16.273Z,1.20
2023-02-11T12:13:09.123Z,1.30
2023-02-11T12:16:01.777Z,1.00
2023-02-11T12:19:11.662Z,1.15
2023-02-11T12:21:54.473Z,1.10
2023-02-11T12:24:30.656Z,1.20
2023-02-11T12:27:20.430Z,1.17
2023-02-11T12:30:21.106Z,1.10
2023-02-11T12:33:19.486Z,1.00
2023-02-11T12:36:09.309Z,1.20
2023-02-11T12:38:47.507Z,0.95
2023-02-11T12:41:53.706Z,1.33
2023-02-11T12:44:47.458Z,0.95
2023-02-11T12:47:54.378Z,0.98
2023-02-11T12:50:41.326Z,1.00
2023-02-11T12:53:18.536Z,1.10
2023-02-11T12:55:50.011Z,1.08
2023-02-11T12:58:29.628Z,1.10
2023-02-11T13:01:11.246Z,1.00
2023-02-11T13:04:12.660Z,1.10
2023-02-11T13:06:48.588Z,1.20
2023-02-11T13:09:22.553Z,1.27
2023-02-11T13:11:57.117Z,1.00
2023-02-11T13:14:38.602Z,1.13
2023-02-11T13:17:18.558Z,1.00
2023-02-11T13:19:53.927Z,1.10
2023-02-11T13:22:41.948Z,1.08
2023-02-11T13:25:19.402Z,1.10
2023-02-11T13:27:47.938Z,1.10
2023-02-11T13:30:48.494Z,1.10
2023-02-11T13:33:37.168Z,1.00
2023-02-11T13:36:05.711Z,0.80
2023-02-11T13:38:34.431Z,1.00
2023-02-11T13:41:38.372Z,0.98
2023-02-11T13:44:12.938Z,1.00
2023-02-11T13:47:02.806Z,0.95
2023-02-11T13:49:41.777Z,0.90
2023-02-11T13:52:35.339Z,0.75
2023-02-11T13:55:25.081Z,0.90
2023-02-11T13:58:12.102Z,0.93
2023-02-11T14:00:40.622Z,1.50
2023-02-11T14:03:33.637Z,1.00
2023-02-11T14:06:31.786Z,1.00
2023-02-11T14:09:10.377Z,0.90
2023-02-11T14:12:16.803Z,1.00
2023-02-11T14:15:14.692Z,1.00
2023-02-11T14:17:43.296Z,1.00
2023-02-11T14:20:37.809Z,1.08
2023-02-11T14:23:06.442Z,0.93
2023-02-11T14:25:35.042Z,0.80
2023-02-11T14:28:25.876Z,1.00
2023-02-11T14:31:11.369Z,1.00
2023-02-11T14:33:53.514Z,0.90
2023-02-11T14:36:37.945Z,1.00
2023-02-11T14:39:15.206Z,0.80
2023-02-11T14:41:45.514Z,0.77
2023-02-11T14:44:21.331Z,0.95
2023-02-11T14:46:51.658Z,0.80
2023-02-11T14:49:33.190Z,0.90
2023-02-11T14:52:21.859Z,0.70
2023-02-11T14:54:51.407Z,0.77
2023-02-11T14:57:21.960Z,0.95
2023-02-11T15:00:03.811Z,0.80
2023-02-11T15:02:37.468Z,0.82
2023-02-11T15:05:34.089Z,1.00
2023-02-11T15:08:04.648Z,0.80
2023-02-11T15:10:43.905Z,0.80
2023-02-11T15:13:20.481Z,1.17
2023-02-11T15:15:51.451Z,1.00
2023-02-11T15:18:25.641Z,0.90
2023-02-11T15:20:54.504Z,1.02
2023-02-11T15:23:27.433Z,1.10
2023-02-11T15:25:58.918Z,1.13
2023-02-11T15:28:30.576Z,1.10
2023-02-11T15:31:17.077Z,1.00
2023-02-11T15:33:45.597Z,0.90
2023-02-11T15:36:16.303Z,0.80
2023-02-11T15:38:45.155Z,0.90
2023-02-11T15:41:40.175Z,0.98
2023-02-11T15:44:29.804Z,1.10
2023-02-11T15:46:58.455Z,0.85
2023-02-11T15:49:27.428Z,0.80
2023-02-11T15:51:58.317Z,0.85
2023-02-11T15:54:30.673Z,0.70
2023-02-11T15:57:08.627Z,0.80
2023-02-11T15:59:39.574Z,0.70
2023-02-11T16:02:18.787Z,0.90
2023-02-11T16:05:41.998Z,0.88
2023-02-11T16:08:25.556Z,0.80
2023-02-11T16:11:04.289Z,0.70
2023-02-11T16:13:34.913Z,0.80
2023-02-11T16:16:06.017Z,0.77
2023-02-11T16:18:39.011Z,0.70
2023-02-11T16:23:40.107Z,1.13
2023-02-11T16:26:22.557Z,0.75
2023-02-11T16:28:51.482Z,0.90
2023-02-11T16:31:20.577Z,0.90
2023-02-11T16:33:48.725Z,0.90
2023-02-11T16:36:21.038Z,1.08
2023-02-11T16:38:49.069Z,1.02
2023-02-11T16:41:17.621Z,0.80
2023-02-11T16:43:46.183Z,0.90
2023-02-11T16:46:17.788Z,0.77
2023-02-11T16:48:47.370Z,1.08
2023-02-11T16:51:15.955Z,1.00
2023-02-11T16:53:44.617Z,0.70
2023-02-11T16:56:17.954Z,0.98
2023-02-11T16:58:47.042Z,0.80
2023-02-11T17:01:15.793Z,0.88
2023-02-11T17:03:44.856Z,0.80
2023-02-11T17:06:14.820Z,0.80
2023-02-11T17:08:43.433Z,0.73
2023-02-11T17:11:12.004Z,0.80
2023-02-11T17:13:42.349Z,0.73
2023-02-11T17:16:22.185Z,1.02
2023-02-11T17:18:51.003Z,0.75
2023-02-11T17:21:19.547Z,0.85
2023-02-11T17:23:48.139Z,0.80
2023-02-11T17:26:16.770Z,0.90
2023-02-11T17:28:45.459Z,0.90
2023-02-11T17:31:13.533Z,1.00
2023-02-11T17:33:42.403Z,0.85
2023-02-11T17:36:11.911Z,0.90
2023-02-11T17:38:40.523Z,0.90
2023-02-11T17:41:09.165Z,0.80
2023-02-11T17:43:37.740Z,0.85
2023-02-11T17:46:10.418Z,0.80
2023-02-11T17:48:40.044Z,0.80
2023-02-11T17:51:25.817Z,0.90
2023-02-11T17:53:55.060Z,0.80
2023-02-11T17:56:23.627Z,0.90
2023-02-11T17:58:52.229Z,0.80
2023-02-11T18:01:21.658Z,0.85
2023-02-11T18:03:50.336Z,1.13
2023-02-11T18:06:19.115Z,0.82
2023-02-11T18:08:48.835Z,1.30
2023-02-11T18:11:17.905Z,0.88
2023-02-11T18:13:46.785Z,0.80
2023-02-11T18:16:16.951Z,1.00
2023-02-11T18:18:45.636Z,0.80
2023-02-11T18:21:16.514Z,0.70
2023-02-11T18:23:45.661Z,0.80
2023-02-11T18:26:16.501Z,0.80
2023-02-11T18:28:46.075Z,0.95
2023-02-11T18:31:15.805Z,0.80
2023-02-11T18:33:44.834Z,0.70
2023-02-11T18:36:15.566Z,0.70
2023-02-11T18:38:45.589Z,0.88
2023-02-11T18:41:14.791Z,0.90
2023-02-11T18:43:44.265Z,0.90
2023-02-11T18:46:14.502Z,0.82
2023-02-11T18:48:43.655Z,0.70
2023-02-11T18:51:17.221Z,0.73
2023-02-11T18:56:17.281Z,0.70
2023-02-11T18:58:45.834Z,0.80
2023-02-11T19:01:15.747Z,0.90
2023-02-11T19:03:45.061Z,0.70
2023-02-11T19:06:30.753Z,1.30
2023-02-11T19:09:02.921Z,0.93
2023-02-11T19:11:51.629Z,0.70
2023-02-11T19:14:24.928Z,1.05
2023-02-11T19:16:58.203Z,0.82
2023-02-11T19:19:29.519Z,0.70
2023-02-11T19:21:59.102Z,0.70
2023-02-11T19:24:28.891Z,0.80
2023-02-11T19:26:59.713Z,0.80
2023-02-11T19:29:29.284Z,1.08
2023-02-11T19:31:57.926Z,1.00
2023-02-11T19:34:26.743Z,0.80
2023-02-11T19:36:55.701Z,0.80
2023-02-11T19:39:26.016Z,0.82
2023-02-11T19:41:54.989Z,0.77
2023-02-11T19:44:23.503Z,0.80
2023-02-11T19:46:54.508Z,0.82
2023-02-11T19:49:27.662Z,0.80
2023-02-11T19:51:58.656Z,0.90
2023-02-11T19:54:28.104Z,0.70
2023-02-11T19:56:57.258Z,0.88
2023-02-11T19:59:26.339Z,0.70
2023-02-11T20:01:55.149Z,0.70
2023-02-11T20:04:25.914Z,0.80
2023-02-11T20:06:54.674Z,0.73
2023-02-11T20:09:24.095Z,0.77
2023-02-11T20:11:52.696Z,0.88
2023-02-11T20:14:21.282Z,0.60
2023-02-11T20:16:50.352Z,0.60
2023-02-11T20:19:21.362Z,0.82
2023-02-11T20:21:52.448Z,0.68
2023-02-11T20:24:21.008Z,0.80
2023-02-11T20:26:50.375Z,0.60
2023-02-11T20:29:19.890Z,1.00
2023-02-11T20:31:49.904Z,0.60
2023-02-11T20:34:18.903Z,0.60
2023-02-11T20:36:53.038Z,0.73
2023-02-11T20:39:23.528Z,0.70
2023-02-11T20:41:53.285Z,0.70
2023-02-11T20:44:23.600Z,0.70
2023-02-11T20:46:52.968Z,0.60
2023-02-11T20:49:24.248Z,0.90
2023-02-11T20:51:54.922Z,0.90
2023-02-11T20:54:24.503Z,0.80
2023-02-11T20:56:54.910Z,0.60
2023-02-11T20:59:23.969Z,0.60
2023-02-11T21:01:57.140Z,0.80
2023-02-11T21:04:28.711Z,1.05
2023-02-11T21:06:59.939Z,0.80
2023-02-11T21:09:31.332Z,0.60
2023-02-11T21:12:00.302Z,0.80
2023-02-11T21:14:29.306Z,0.82
2023-02-11T21:16:57.921Z,1.52
2023-02-11T21:19:26.496Z,0.80
2023-02-11T21:21:56.337Z,0.85
2023-02-11T21:24:24.996Z,0.73
2023-02-11T21:26:53.602Z,0.85
2023-02-11T21:29:22.192Z,0.60
2023-02-11T21:31:51.050Z,0.70
2023-02-11T21:34:21.398Z,0.73
2023-02-11T21:36:52.291Z,0.70
2023-02-11T21:39:21.678Z,0.70
2023-02-11T21:41:50.350Z,1.00
2023-02-11T21:44:19.423Z,0.80
2023-02-11T21:46:48.127Z,0.80
2023-02-11T21:49:16.708Z,0.80
2023-02-11T21:51:45.195Z,1.10
2023-02-11T21:54:13.844Z,0.98
2023-02-11T21:56:42.828Z,0.80
2023-02-11T21:59:14.261Z,0.90
2023-02-11T22:01:42.851Z,0.80
2023-02-11T22:04:11.669Z,0.80
2023-02-11T22:06:40.804Z,0.85
2023-02-11T22:09:12.328Z,0.75
2023-02-11T22:11:40.940Z,0.90
2023-02-11T22:14:09.517Z,0.60
2023-02-11T22:16:38.459Z,0.70
2023-02-11T22:19:08.778Z,1.10
2023-02-11T22:21:37.832Z,3.58
2023-02-11T22:24:06.795Z,3.20
2023-02-11T22:26:38.229Z,1.98
2023-02-11T22:29:06.808Z,1.60
2023-02-11T22:31:36.305Z,1.10
2023-02-11T22:34:06.026Z,0.73
2023-02-11T22:36:37.095Z,0.88
2023-02-11T22:39:10.367Z,0.95
2023-02-11T22:41:41.518Z,2.67
2023-02-11T22:44:10.498Z,2.80
2023-02-11T22:46:39.439Z,2.17
2023-02-11T22:49:08.630Z,2.30
2023-02-11T22:51:37.184Z,2.13
2023-02-11T22:54:08.239Z,3.60
2023-02-11T22:56:37.064Z,3.15
2023-02-11T22:59:09.169Z,2.50
2023-02-11T23:01:38.211Z,1.90
2023-02-11T23:04:08.824Z,2.25
2023-02-11T23:06:38.242Z,1.80
2023-02-11T23:09:08.548Z,1.30
2023-02-11T23:11:37.176Z,1.42
2023-02-11T23:14:06.689Z,1.10
2023-02-11T23:16:36.440Z,0.95
2023-02-11T23:19:07.674Z,0.80
2023-02-11T23:21:38.293Z,0.80
2023-02-11T23:24:10.136Z,0.80
2023-02-11T23:26:40.484Z,0.70
2023-02-11T23:29:09.311Z,0.60
2023-02-11T23:31:41.039Z,1.00
2023-02-11T23:34:10.253Z,1.00
2023-02-11T23:36:38.818Z,1.15
2023-02-11T23:39:07.686Z,1.80
2023-02-11T23:41:36.353Z,1.60
2023-02-11T23:44:04.908Z,1.38
2023-02-11T23:46:33.483Z,1.35
2023-02-11T23:49:02.063Z,1.33
2023-02-11T23:51:30.688Z,1.30
2023-02-11T23:53:59.379Z,1.00
2023-02-11T23:56:29.146Z,1.33
2023-02-11T23:58:59.127Z,1.10
